Flight Track Log - Related Links

Times and Time Zones

All times are in EDT time to prevent confusion due to time zone crossing. See the USC105 flight status page for this flight to view local times or setup timezone preferences in your user account.

Time Position Orientation Groundspeed Altitude Reporting Facility
EDT Latitude Longitude Course Direction KTS MPH feet Rate Location/Type
Thu 06:58:24 AM 42.2108 -83.5717 227° Southwest 117 135 2,200  Level Cleveland Center
Thu 06:59:31 AM 42.1769 -83.5953 207° Southwest 149 171 3,000 393 Climbing Cleveland Center
Thu 07:00:26 AM 42.1414 -83.5992 185° South 152 175 3,000 52 Level Cleveland Center
Thu 07:01:27 AM 42.0978 -83.5831 165° South 165 190 3,100 49 Climbing Cleveland Center
Thu 07:02:28 AM 42.0547 -83.5586 157° South 165 190 3,100 295 Level Cleveland Center
Thu 07:03:29 AM 42.0136 -83.5372 159° South 142 163 3,700 645 Climbing Cleveland Center
Thu 07:04:29 AM 41.9789 -83.5133 153° Southeast 141 162 4,400 744 Climbing Cleveland Center
Thu 07:05:30 AM 41.9417 -83.4947 160° South 141 162 5,200 836 Climbing Cleveland Center
Thu 07:06:31 AM 41.9069 -83.4739 156° South 137 158 6,100 56 Climbing Cleveland Center
Thu 07:08:00 AM 41.8336 -83.4117 148° Southeast  Level FlightAware Approximate
Thu 07:15:00 AM 41.4322 -83.2789 170° South  Level FlightAware Approximate
Thu 07:16:00 AM 41.3746 -83.2655 170° South  Level FlightAware Approximate
Thu 07:17:00 AM 41.3170 -83.2523 170° South  Level FlightAware Approximate
Thu 07:18:00 AM 41.2593 -83.2390 170° South  Level FlightAware Approximate
Thu 07:19:00 AM 41.2017 -83.2257 170° South  Level FlightAware Approximate
Thu 07:20:00 AM 41.1441 -83.2125 170° South  Level FlightAware Approximate
Thu 07:21:00 AM 41.0865 -83.1993 170° South  Level FlightAware Approximate
Thu 07:22:00 AM 41.0289 -83.1861 170° South  Level FlightAware Approximate
Thu 07:23:00 AM 40.9713 -83.1729 170° South  Level FlightAware Approximate
Thu 07:24:00 AM 40.9137 -83.1596 170° South  Level FlightAware Approximate
Thu 07:25:00 AM 40.8561 -83.1464 170° South  Level FlightAware Approximate
Thu 07:26:00 AM 40.7985 -83.1332 170° South  Level FlightAware Approximate
Thu 07:27:00 AM 40.7409 -83.1200 170° South  Level FlightAware Approximate
Thu 07:28:00 AM 40.6833 -83.1068 170° South  Level FlightAware Approximate
Thu 07:29:00 AM 40.6257 -83.0937 170° South  Level FlightAware Approximate
Thu 07:30:00 AM 40.5681 -83.0806 170° South  Level FlightAware Approximate
Thu 07:31:00 AM 40.5104 -83.0675 170° South  Level FlightAware Approximate
Thu 07:32:00 AM 40.4528 -83.0544 170° South  Level FlightAware Approximate
Thu 07:33:00 AM 40.3952 -83.0418 171° South  Level FlightAware Approximate
Thu 07:34:00 AM 40.3375 -83.0294 171° South  Level FlightAware Approximate
Thu 07:35:00 AM 40.2798 -83.0171 171° South  Level FlightAware Approximate
Thu 07:36:00 AM 40.2221 -83.0047 171° South  Level FlightAware Approximate
Thu 07:37:00 AM 40.1641 -82.9949 174° South  Level FlightAware Approximate
Thu 07:37:47 AM 40.4036 -83.0767 171° South 179 206 7,000  Level Indianapolis Center
Thu 07:38:00 AM 40.1060 -82.9866 174° South  Level FlightAware Approximate
Thu 07:39:00 AM 40.0481 -82.9763 171° South  Level FlightAware Approximate
Thu 07:39:18 AM 40.3294 -83.0569 169° South 178 205 6,700  Level Indianapolis Center
Thu 07:40:00 AM 39.9903 -82.9647 171° South  Level FlightAware Approximate
Thu 07:40:37 AM 40.2597 -83.0381 168° South 194 223 5,700  Level Indianapolis Center
Thu 07:41:00 AM 39.9325 -82.9531 171° South  Level FlightAware Approximate
Thu 07:41:34 AM 40.2172 -83.0256 167° South 194 223 5,100  Level Indianapolis Center
Thu 07:42:00 AM 39.8747 -82.9416 171° South  Level FlightAware Approximate
Thu 07:42:32 AM 40.1631 -83.0131 170° South 181 208 4,400  Level Indianapolis Center
Thu 07:43:33 AM 40.1156 -83.0022 170° South 173 199 3,900 -261 Descending Indianapolis Center
Thu 07:44:27 AM 40.0764 -82.9922 169° South 156 180 3,900  Level Indianapolis Center
Thu 07:45:28 AM 40.0353 -82.9819 169° South 148 170 3,900 50 Level Indianapolis Center
Thu 07:46:28 AM 39.9961 -82.9747 172° South 143 165 4,000 -347 Climbing Indianapolis Center
Thu 07:47:29 AM 39.9553 -82.9592 164° South 164 189 3,200 -788 Descending Indianapolis Center
Thu 07:48:45 AM 39.9014 -82.9289 157° South 162 186 2,200 -613 Descending Indianapolis Center
Thu 07:49:46 AM 39.8633 -82.9086 158° South 156 180 1,800 -561 Descending Indianapolis Center
Thu 07:50:32 AM 39.8403 -82.8972 159° South 117 135 1,200 -677 Descending Indianapolis Center
Thu 07:50:48 AM 39.8336 -82.9036 216° Southwest 143 165 1,100 -234 Descending Indianapolis Center
Thu 07:51:49 AM 39.8044 -82.9411 225° Southwest 139 160 900 -197 Descending Indianapolis Center

Login

Don't have an account? Register now (free) for customized features, flight alerts, and more!